createdAt,value
2023-05-01T00:00:08.530Z,18.44
2023-05-01T00:00:19.616Z,18.44
2023-05-01T00:00:31.555Z,18.42
2023-05-01T00:00:42.542Z,18.46
2023-05-01T00:00:53.619Z,18.44
2023-05-01T00:01:05.562Z,18.44
2023-05-01T00:01:16.524Z,18.44
2023-05-01T00:01:27.510Z,18.44
2023-05-01T00:01:38.648Z,18.44
2023-05-01T00:01:50.588Z,18.44
2023-05-01T00:02:01.570Z,18.44
2023-05-01T00:02:12.566Z,18.44
2023-05-01T00:02:23.636Z,18.44
2023-05-01T00:02:35.587Z,18.44
2023-05-01T00:02:47.639Z,18.46
2023-05-01T00:02:58.606Z,18.44
2023-05-01T00:03:09.692Z,18.44
2023-05-01T00:03:21.651Z,18.44
2023-05-01T00:03:33.767Z,18.42
2023-05-01T00:03:44.768Z,18.44
2023-05-01T00:03:55.709Z,18.44
2023-05-01T00:04:07.750Z,18.46
2023-05-01T00:04:19.770Z,18.42
2023-05-01T00:04:30.619Z,18.46
2023-05-01T00:04:42.659Z,18.46
2023-05-01T00:04:53.629Z,18.44
2023-05-01T00:05:05.730Z,18.44
2023-05-01T00:05:17.552Z,18.44
2023-05-01T00:05:28.530Z,18.42
2023-05-01T00:05:39.611Z,18.44
2023-05-01T00:05:51.577Z,18.46
2023-05-01T00:06:02.572Z,18.44
2023-05-01T00:06:13.598Z,18.44
2023-05-01T00:06:25.642Z,18.44
2023-05-01T00:06:37.677Z,18.44
2023-05-01T00:06:48.618Z,18.42
2023-05-01T00:07:00.564Z,18.44
2023-05-01T00:07:11.557Z,18.44
2023-05-01T00:07:22.552Z,18.42
2023-05-01T00:07:33.536Z,18.42
2023-05-01T00:07:44.626Z,18.42
2023-05-01T00:07:56.575Z,18.44
2023-05-01T00:08:07.548Z,18.44
2023-05-01T00:08:18.535Z,18.44
2023-05-01T00:08:29.608Z,18.42
2023-05-01T00:08:41.545Z,18.44
2023-05-01T00:08:52.623Z,18.42
2023-05-01T00:09:04.569Z,18.42
2023-05-01T00:09:15.569Z,18.44
2023-05-01T00:09:26.558Z,18.44
2023-05-01T00:09:37.531Z,18.44
2023-05-01T00:09:48.529Z,18.42
2023-05-01T00:09:59.614Z,18.44
2023-05-01T00:10:11.549Z,18.44
2023-05-01T00:10:22.524Z,18.44
2023-05-01T00:10:33.610Z,18.44
2023-05-01T00:10:44.583Z,18.44
2023-05-01T00:10:55.561Z,18.44
2023-05-01T00:11:06.543Z,18.44
2023-05-01T00:11:17.576Z,18.42
2023-05-01T00:11:28.553Z,18.44
2023-05-01T00:11:39.574Z,18.46
2023-05-01T00:11:50.591Z,18.44
2023-05-01T00:12:01.565Z,18.44
2023-05-01T00:12:12.551Z,18.46
2023-05-01T00:12:23.539Z,18.46
2023-05-01T00:12:34.610Z,18.46
2023-05-01T00:12:46.560Z,18.44
2023-05-01T00:12:57.531Z,18.44
2023-05-01T00:13:08.608Z,18.44
2023-05-01T00:13:20.555Z,18.46
2023-05-01T00:13:31.534Z,18.46
2023-05-01T00:13:42.614Z,18.44
2023-05-01T00:13:54.555Z,18.44
2023-05-01T00:14:05.530Z,18.42
2023-05-01T00:14:16.617Z,18.44
2023-05-01T00:14:28.558Z,18.44
2023-05-01T00:14:39.542Z,18.46
2023-05-01T00:14:50.607Z,18.44
2023-05-01T00:15:02.560Z,18.44
2023-05-01T00:15:13.535Z,18.44
2023-05-01T00:15:24.525Z,18.44
2023-05-01T00:15:35.604Z,18.44
2023-05-01T00:15:47.552Z,18.44
2023-05-01T00:15:58.595Z,18.46
2023-05-01T00:16:10.615Z,18.44
2023-05-01T00:16:21.648Z,18.46
2023-05-01T00:16:32.585Z,18.44
2023-05-01T00:16:44.565Z,18.46
2023-05-01T00:16:55.594Z,18.46
2023-05-01T00:17:07.547Z,18.46
2023-05-01T00:17:18.544Z,18.46
2023-05-01T00:17:29.563Z,18.46
2023-05-01T00:17:40.579Z,18.46
2023-05-01T00:17:52.611Z,18.46
2023-05-01T00:18:04.645Z,18.44
2023-05-01T00:18:15.851Z,18.44
2023-05-01T00:18:26.575Z,18.46
2023-05-01T00:18:37.561Z,18.46
2023-05-01T00:18:48.540Z,18.44
2023-05-01T00:18:59.521Z,18.46
2023-05-01T00:19:10.616Z,18.47
2023-05-01T00:19:22.565Z,18.46
2023-05-01T00:19:33.547Z,18.47
2023-05-01T00:19:44.526Z,18.46
2023-05-01T00:19:55.653Z,18.46
2023-05-01T00:20:06.559Z,18.46
2023-05-01T00:20:17.543Z,18.44
2023-05-01T00:20:28.525Z,18.46
2023-05-01T00:20:40.542Z,18.46
2023-05-01T00:20:51.535Z,18.46
2023-05-01T00:21:02.526Z,18.47
2023-05-01T00:21:13.605Z,18.46
2023-05-01T00:21:24.565Z,18.47
2023-05-01T00:21:35.544Z,18.46
2023-05-01T00:21:46.519Z,18.46
2023-05-01T00:21:57.597Z,18.46
2023-05-01T00:22:09.575Z,18.47
2023-05-01T00:22:20.555Z,18.44
2023-05-01T00:22:31.525Z,18.46
2023-05-01T00:22:42.518Z,18.47
2023-05-01T00:22:53.596Z,18.46
2023-05-01T00:23:05.544Z,18.46
2023-05-01T00:23:16.534Z,18.47
2023-05-01T00:23:27.608Z,18.46
2023-05-01T00:23:39.565Z,18.46
2023-05-01T00:23:50.535Z,18.46
2023-05-01T00:24:01.616Z,18.46
2023-05-01T00:24:13.548Z,18.46
2023-05-01T00:24:24.538Z,18.46
2023-05-01T00:24:35.608Z,18.46
2023-05-01T00:24:47.545Z,18.46
2023-05-01T00:24:58.543Z,18.46
2023-05-01T00:25:09.532Z,18.46
2023-05-01T00:25:20.565Z,18.47
2023-05-01T00:25:31.558Z,18.44
2023-05-01T00:25:42.538Z,18.46
2023-05-01T00:25:53.522Z,18.47
2023-05-01T00:26:04.605Z,18.46
2023-05-01T00:26:16.550Z,18.47
2023-05-01T00:26:27.525Z,18.46
2023-05-01T00:26:38.580Z,18.47
2023-05-01T00:26:49.613Z,18.47
2023-05-01T00:27:01.555Z,18.47
2023-05-01T00:27:12.530Z,18.46
2023-05-01T00:27:23.620Z,18.46
2023-05-01T00:27:35.561Z,18.46
2023-05-01T00:27:46.572Z,18.46
2023-05-01T00:27:57.555Z,18.46
2023-05-01T00:28:08.533Z,18.47
2023-05-01T00:28:19.643Z,18.46
2023-05-01T00:28:31.607Z,18.46
2023-05-01T00:28:43.548Z,18.47
2023-05-01T00:28:54.525Z,18.47
2023-05-01T00:29:05.590Z,18.46
2023-05-01T00:29:16.563Z,18.44
2023-05-01T00:29:27.534Z,18.46
2023-05-01T00:29:38.533Z,18.46
2023-05-01T00:29:49.605Z,18.46
2023-05-01T00:30:00.575Z,18.46
2023-05-01T00:30:11.559Z,18.46
2023-05-01T00:30:22.553Z,18.46
2023-05-01T00:30:33.561Z,18.46
2023-05-01T00:30:44.530Z,18.47
2023-05-01T00:30:55.613Z,18.46
2023-05-01T00:31:07.564Z,18.46
2023-05-01T00:31:18.610Z,18.46
2023-05-01T00:31:30.614Z,18.44
2023-05-01T00:31:42.724Z,18.47
2023-05-01T00:31:54.624Z,18.46
2023-05-01T00:32:06.280Z,18.46
2023-05-01T00:32:17.591Z,18.46
2023-05-01T00:32:29.577Z,18.46
2023-05-01T00:32:40.618Z,18.46
2023-05-01T00:32:51.618Z,18.44
2023-05-01T00:33:02.660Z,18.44
2023-05-01T00:33:13.618Z,18.46
2023-05-01T00:33:25.558Z,18.46
2023-05-01T00:33:36.558Z,18.46
2023-05-01T00:33:47.559Z,18.47
2023-05-01T00:33:58.561Z,18.46
2023-05-01T00:34:09.538Z,18.44
2023-05-01T00:34:20.616Z,18.44
2023-05-01T00:34:32.560Z,18.46
2023-05-01T00:34:43.535Z,18.46
2023-05-01T00:34:54.638Z,18.46
2023-05-01T00:35:06.583Z,18.47
2023-05-01T00:35:17.574Z,18.44
2023-05-01T00:35:28.544Z,18.46
2023-05-01T00:35:39.529Z,18.44
2023-05-01T00:35:50.546Z,18.44
2023-05-01T00:36:01.546Z,18.46
2023-05-01T00:36:12.532Z,18.44
2023-05-01T00:36:23.601Z,18.44
2023-05-01T00:36:35.549Z,18.44
2023-05-01T00:36:48.031Z,18.46
2023-05-01T00:36:57.589Z,18.46
2023-05-01T00:37:08.592Z,18.46
2023-05-01T00:37:19.576Z,18.44
2023-05-01T00:37:30.552Z,18.44
2023-05-01T00:37:41.547Z,18.46
2023-05-01T00:37:52.563Z,18.46
2023-05-01T00:38:03.536Z,18.44
2023-05-01T00:38:14.625Z,18.46
2023-05-01T00:38:26.572Z,18.46
2023-05-01T00:38:37.554Z,18.46
2023-05-01T00:38:48.535Z,18.44
2023-05-01T00:38:59.612Z,18.44
2023-05-01T00:39:11.557Z,18.44
2023-05-01T00:39:22.535Z,18.44
2023-05-01T00:39:33.612Z,18.46
2023-05-01T00:39:45.591Z,18.46
2023-05-01T00:39:58.042Z,18.46
2023-05-01T00:40:08.569Z,18.44
2023-05-01T00:40:19.558Z,18.46
2023-05-01T00:40:30.563Z,18.46
2023-05-01T00:40:41.537Z,18.44
2023-05-01T00:40:52.522Z,18.46
2023-05-01T00:41:03.598Z,18.47
2023-05-01T00:41:14.580Z,18.44
2023-05-01T00:41:25.562Z,18.46
2023-05-01T00:41:36.550Z,18.47
2023-05-01T00:41:47.541Z,18.44
2023-05-01T00:41:58.620Z,18.44
2023-05-01T00:42:10.568Z,18.47
2023-05-01T00:42:21.567Z,18.46
2023-05-01T00:42:32.546Z,18.47
2023-05-01T00:42:43.625Z,18.46
2023-05-01T00:42:55.570Z,18.46
2023-05-01T00:43:06.550Z,18.46
2023-05-01T00:43:17.525Z,18.46
2023-05-01T00:43:28.606Z,18.47
2023-05-01T00:43:39.592Z,18.46
2023-05-01T00:43:50.577Z,18.47
2023-05-01T00:44:02.556Z,18.46
2023-05-01T00:44:13.542Z,18.46
2023-05-01T00:44:24.524Z,18.47
2023-05-01T00:44:35.613Z,18.47
2023-05-01T00:44:47.557Z,18.47
2023-05-01T00:44:58.537Z,18.46
2023-05-01T00:45:09.614Z,18.44
2023-05-01T00:45:21.558Z,18.46
2023-05-01T00:45:32.551Z,18.46
2023-05-01T00:45:43.564Z,18.47
2023-05-01T00:45:54.610Z,18.46
2023-05-01T00:46:05.575Z,18.47
2023-05-01T00:46:16.666Z,18.47
2023-05-01T00:46:27.640Z,18.47
2023-05-01T00:46:39.559Z,18.47
2023-05-01T00:46:50.578Z,18.47
2023-05-01T00:47:01.576Z,18.47
2023-05-01T00:47:12.563Z,18.47
2023-05-01T00:47:23.583Z,18.47
2023-05-01T00:47:35.581Z,18.47
2023-05-01T00:47:47.652Z,18.49
2023-05-01T00:47:58.613Z,18.47
2023-05-01T00:48:09.634Z,18.49
2023-05-01T00:48:20.545Z,18.46
2023-05-01T00:48:31.531Z,18.47
2023-05-01T00:48:42.570Z,18.47
2023-05-01T00:48:53.555Z,18.46
2023-05-01T00:49:04.564Z,18.47
2023-05-01T00:49:15.587Z,18.47
2023-05-01T00:49:27.560Z,18.47
2023-05-01T00:49:38.535Z,18.47
2023-05-01T00:49:49.644Z,18.47
2023-05-01T00:50:01.626Z,18.47
2023-05-01T00:50:13.575Z,18.47
2023-05-01T00:50:24.546Z,18.46
2023-05-01T00:50:35.525Z,18.47
2023-05-01T00:50:46.588Z,18.47
2023-05-01T00:50:57.575Z,18.47
2023-05-01T00:51:08.562Z,18.46
2023-05-01T00:51:19.560Z,18.49
2023-05-01T00:51:30.549Z,18.49
2023-05-01T00:51:41.534Z,18.47
2023-05-01T00:51:52.530Z,18.47
2023-05-01T00:52:03.615Z,18.46
2023-05-01T00:52:15.573Z,18.46
2023-05-01T00:52:26.566Z,18.46
2023-05-01T00:52:37.544Z,18.47
2023-05-01T00:52:48.531Z,18.47
2023-05-01T00:52:59.613Z,18.49
2023-05-01T00:53:11.573Z,18.46
2023-05-01T00:53:22.553Z,18.47
2023-05-01T00:53:33.535Z,18.49
2023-05-01T00:53:44.519Z,18.47
2023-05-01T00:53:55.615Z,18.47
2023-05-01T00:54:06.590Z,18.47
2023-05-01T00:54:17.569Z,18.46
2023-05-01T00:54:28.543Z,18.47
2023-05-01T00:54:39.537Z,18.47
2023-05-01T00:54:50.616Z,18.47
2023-05-01T00:55:02.583Z,18.47
2023-05-01T00:55:14.559Z,18.46
2023-05-01T00:55:25.560Z,18.47
2023-05-01T00:55:36.550Z,18.46
2023-05-01T00:55:47.528Z,18.49
2023-05-01T00:55:58.523Z,18.47
2023-05-01T00:56:09.620Z,18.46
2023-05-01T00:56:21.586Z,18.47
2023-05-01T00:56:32.581Z,18.46
2023-05-01T00:56:43.555Z,18.47
2023-05-01T00:56:54.555Z,18.47
2023-05-01T00:57:06.293Z,18.46
2023-05-01T00:57:17.567Z,18.47
2023-05-01T00:57:28.544Z,18.46
2023-05-01T00:57:39.631Z,18.47
2023-05-01T00:57:51.566Z,18.44
2023-05-01T00:58:02.538Z,18.46
2023-05-01T00:58:13.616Z,18.46
2023-05-01T00:58:24.605Z,18.44
2023-05-01T00:58:36.555Z,18.47
2023-05-01T00:58:47.541Z,18.47
2023-05-01T00:58:58.605Z,18.46
2023-05-01T00:59:10.559Z,18.46
2023-05-01T00:59:21.532Z,18.46
2023-05-01T00:59:32.618Z,18.46
2023-05-01T00:59:44.558Z,18.46
2023-05-01T00:59:55.806Z,18.47
2023-05-01T01:00:06.548Z,18.46
2023-05-01T01:00:17.614Z,18.46
2023-05-01T01:00:29.685Z,18.46
2023-05-01T01:00:40.567Z,18.46
2023-05-01T01:00:51.561Z,18.46
2023-05-01T01:01:02.576Z,18.46
2023-05-01T01:01:13.595Z,18.44
2023-05-01T01:01:25.619Z,18.46
2023-05-01T01:01:37.632Z,18.46
2023-05-01T01:01:48.591Z,18.44
2023-05-01T01:02:00.556Z,18.47
2023-05-01T01:02:11.541Z,18.44
2023-05-01T01:02:22.662Z,18.44
2023-05-01T01:02:34.608Z,18.46
2023-05-01T01:02:46.602Z,18.46
2023-05-01T01:02:58.606Z,18.46
2023-05-01T01:03:10.571Z,18.44
2023-05-01T01:03:22.548Z,18.44
2023-05-01T01:03:33.537Z,18.44
2023-05-01T01:03:44.510Z,18.44
2023-05-01T01:03:55.674Z,18.46
2023-05-01T01:04:07.629Z,18.46
2023-05-01T01:04:19.689Z,18.46
2023-05-01T01:04:31.660Z,18.44
2023-05-01T01:04:42.604Z,18.46
2023-05-01T01:04:54.625Z,18.44
2023-05-01T01:05:06.596Z,18.44
2023-05-01T01:05:17.571Z,18.46
2023-05-01T01:05:28.596Z,18.44
2023-05-01T01:05:40.550Z,18.46
2023-05-01T01:05:51.536Z,18.42
2023-05-01T01:06:02.652Z,18.44
2023-05-01T01:06:14.579Z,18.44
2023-05-01T01:06:25.626Z,18.46
2023-05-01T01:06:36.545Z,18.46
2023-05-01T01:06:47.678Z,18.44
2023-05-01T01:06:58.561Z,18.46
2023-05-01T01:07:09.573Z,18.44
2023-05-01T01:07:20.569Z,18.46
2023-05-01T01:07:31.557Z,18.44
2023-05-01T01:07:42.529Z,18.46
2023-05-01T01:07:53.606Z,18.46
2023-05-01T01:08:05.574Z,18.44
2023-05-01T01:08:16.572Z,18.44
2023-05-01T01:08:27.557Z,18.44
2023-05-01T01:08:38.534Z,18.42
2023-05-01T01:08:49.532Z,18.44
2023-05-01T01:09:00.601Z,18.44
2023-05-01T01:09:11.579Z,18.44
2023-05-01T01:09:22.562Z,18.44
2023-05-01T01:09:33.540Z,18.42
2023-05-01T01:09:44.618Z,18.44
2023-05-01T01:09:56.908Z,18.44
2023-05-01T01:10:07.551Z,18.42
2023-05-01T01:10:18.595Z,18.44
2023-05-01T01:10:29.580Z,18.42
2023-05-01T01:10:40.581Z,18.44
2023-05-01T01:10:51.613Z,18.44
2023-05-01T01:11:03.576Z,18.46
2023-05-01T01:11:14.558Z,18.44
2023-05-01T01:11:25.545Z,18.42
2023-05-01T01:11:36.616Z,18.44
2023-05-01T01:11:48.565Z,18.42
2023-05-01T01:11:59.590Z,18.42
2023-05-01T01:12:10.572Z,18.44
2023-05-01T01:12:21.578Z,18.42
2023-05-01T01:12:32.554Z,18.44
2023-05-01T01:12:43.530Z,18.42
2023-05-01T01:12:54.645Z,18.42
2023-05-01T01:13:06.604Z,18.42
2023-05-01T01:13:18.564Z,18.42
2023-05-01T01:13:29.552Z,18.42
2023-05-01T01:13:40.530Z,18.42
2023-05-01T01:13:51.538Z,18.42
2023-05-01T01:14:02.542Z,18.41
2023-05-01T01:14:13.520Z,18.41
2023-05-01T01:14:24.605Z,18.42
2023-05-01T01:14:36.569Z,18.42
2023-05-01T01:14:47.573Z,18.42
2023-05-01T01:14:58.575Z,18.41
2023-05-01T01:15:09.564Z,18.39
2023-05-01T01:15:20.555Z,18.42
2023-05-01T01:15:32.564Z,18.41
2023-05-01T01:15:43.546Z,18.41
2023-05-01T01:15:54.528Z,18.39
2023-05-01T01:16:05.625Z,18.41
2023-05-01T01:16:17.636Z,18.39
2023-05-01T01:16:28.549Z,18.41
2023-05-01T01:16:39.623Z,18.39
2023-05-01T01:16:51.602Z,18.39
2023-05-01T01:17:03.653Z,18.41
2023-05-01T01:17:15.784Z,18.41
2023-05-01T01:17:26.564Z,18.41
2023-05-01T01:17:37.569Z,18.41
2023-05-01T01:17:48.677Z,18.41
2023-05-01T01:17:59.618Z,18.41
2023-05-01T01:18:10.689Z,18.39
2023-05-01T01:18:22.615Z,18.42
2023-05-01T01:18:34.557Z,18.41
2023-05-01T01:18:45.528Z,18.41
2023-05-01T01:18:56.574Z,18.42
2023-05-01T01:19:07.571Z,18.39
2023-05-01T01:19:18.551Z,18.41
2023-05-01T01:19:29.544Z,18.41
2023-05-01T01:19:40.535Z,18.41
2023-05-01T01:19:51.606Z,18.39
2023-05-01T01:20:03.550Z,18.39
2023-05-01T01:20:14.562Z,18.41
2023-05-01T01:20:25.540Z,18.41
2023-05-01T01:20:36.522Z,18.39
2023-05-01T01:20:47.685Z,18.39
2023-05-01T01:20:59.532Z,18.41
2023-05-01T01:21:10.646Z,18.39
2023-05-01T01:21:22.592Z,18.41
2023-05-01T01:21:34.582Z,18.41
2023-05-01T01:21:45.566Z,18.39
2023-05-01T01:21:56.567Z,18.41
2023-05-01T01:22:07.549Z,18.41
2023-05-01T01:22:18.618Z,18.41
2023-05-01T01:22:30.553Z,18.41
2023-05-01T01:22:41.531Z,18.41
2023-05-01T01:22:52.519Z,18.39
2023-05-01T01:23:03.613Z,18.41
2023-05-01T01:23:15.598Z,18.41
2023-05-01T01:23:26.584Z,18.41
2023-05-01T01:23:38.567Z,18.39
2023-05-01T01:23:49.547Z,18.39
2023-05-01T01:24:00.528Z,18.39
2023-05-01T01:24:11.607Z,18.39
2023-05-01T01:24:23.562Z,18.39
2023-05-01T01:24:34.557Z,18.41
2023-05-01T01:24:45.543Z,18.41
2023-05-01T01:24:56.615Z,18.41
2023-05-01T01:25:07.576Z,18.41
2023-05-01T01:25:18.552Z,18.41
2023-05-01T01:25:29.546Z,18.39
2023-05-01T01:25:40.624Z,18.38
2023-05-01T01:25:52.576Z,18.39
2023-05-01T01:26:03.589Z,18.39
2023-05-01T01:26:14.545Z,18.39
2023-05-01T01:26:25.542Z,18.41
2023-05-01T01:26:36.526Z,18.41
2023-05-01T01:26:47.614Z,18.39
2023-05-01T01:26:59.533Z,18.41
2023-05-01T01:27:10.613Z,18.39
2023-05-01T01:27:22.574Z,18.39
2023-05-01T01:27:33.548Z,18.39
2023-05-01T01:27:44.528Z,18.41
2023-05-01T01:27:55.604Z,18.39
2023-05-01T01:28:06.574Z,18.39
2023-05-01T01:28:17.578Z,18.41
2023-05-01T01:28:28.580Z,18.41
2023-05-01T01:28:39.560Z,18.39
2023-05-01T01:28:50.535Z,18.39
2023-05-01T01:29:01.617Z,18.41
2023-05-01T01:29:13.548Z,18.42
2023-05-01T01:29:24.532Z,18.39
2023-05-01T01:29:35.603Z,18.39
2023-05-01T01:29:47.580Z,18.39
2023-05-01T01:29:58.678Z,18.41
2023-05-01T01:30:09.618Z,18.41
2023-05-01T01:30:21.558Z,18.39
2023-05-01T01:30:32.561Z,18.39
2023-05-01T01:30:43.610Z,18.41
2023-05-01T01:30:54.589Z,18.39
2023-05-01T01:31:05.609Z,18.41
2023-05-01T01:31:17.648Z,18.39
2023-05-01T01:31:29.617Z,18.41
2023-05-01T01:31:40.566Z,18.39
2023-05-01T01:31:52.563Z,18.41
2023-05-01T01:32:03.597Z,18.41
2023-05-01T01:32:14.597Z,18.39
2023-05-01T01:32:25.612Z,18.39
2023-05-01T01:32:37.646Z,18.41
2023-05-01T01:32:48.686Z,18.39
2023-05-01T01:33:00.607Z,18.41
2023-05-01T01:33:11.563Z,18.41
2023-05-01T01:33:22.557Z,18.38
2023-05-01T01:33:33.539Z,18.39
2023-05-01T01:33:44.519Z,18.38
2023-05-01T01:33:55.601Z,18.39
2023-05-01T01:34:06.575Z,18.39
2023-05-01T01:34:17.577Z,18.39
2023-05-01T01:34:28.552Z,18.39
2023-05-01T01:34:39.528Z,18.39
2023-05-01T01:34:50.518Z,18.38
2023-05-01T01:35:01.603Z,18.39
2023-05-01T01:35:12.578Z,18.38
2023-05-01T01:35:23.548Z,18.39
2023-05-01T01:35:34.530Z,18.39
2023-05-01T01:35:45.622Z,18.39
2023-05-01T01:35:57.566Z,18.38
2023-05-01T01:36:08.540Z,18.38
2023-05-01T01:36:19.612Z,18.39
2023-05-01T01:36:31.594Z,18.38
2023-05-01T01:36:42.580Z,18.39
2023-05-01T01:36:53.554Z,18.39
2023-05-01T01:37:04.524Z,18.41
2023-05-01T01:37:15.634Z,18.38
2023-05-01T01:37:27.585Z,18.39
2023-05-01T01:37:39.600Z,18.39
2023-05-01T01:37:50.587Z,18.39
2023-05-01T01:38:01.572Z,18.39
2023-05-01T01:38:12.561Z,18.39
2023-05-01T01:38:23.553Z,18.39
2023-05-01T01:38:34.533Z,18.39
2023-05-01T01:38:45.530Z,18.38
2023-05-01T01:38:56.611Z,18.38
2023-05-01T01:39:08.553Z,18.39
2023-05-01T01:39:19.535Z,18.39
2023-05-01T01:39:30.616Z,18.38
2023-05-01T01:39:42.572Z,18.39
2023-05-01T01:39:53.698Z,18.39
2023-05-01T01:40:05.563Z,18.38
2023-05-01T01:40:16.551Z,18.39
2023-05-01T01:40:27.544Z,18.39
2023-05-01T01:40:38.525Z,18.41
2023-05-01T01:40:49.527Z,18.38
2023-05-01T01:41:00.596Z,18.39
2023-05-01T01:41:11.583Z,18.38
2023-05-01T01:41:22.554Z,18.39
2023-05-01T01:41:33.530Z,18.39
2023-05-01T01:41:44.523Z,18.39
2023-05-01T01:41:55.601Z,18.38
2023-05-01T01:42:07.582Z,18.38
2023-05-01T01:42:19.577Z,18.39
2023-05-01T01:42:30.571Z,18.39
2023-05-01T01:42:41.564Z,18.39
2023-05-01T01:42:52.544Z,18.38
2023-05-01T01:43:03.527Z,18.39
2023-05-01T01:43:14.609Z,18.38
2023-05-01T01:43:26.568Z,18.36
2023-05-01T01:43:37.549Z,18.39
2023-05-01T01:43:48.523Z,18.38
2023-05-01T01:43:59.617Z,18.39
2023-05-01T01:44:11.564Z,18.39
2023-05-01T01:44:22.547Z,18.39
2023-05-01T01:44:33.538Z,18.39
2023-05-01T01:44:44.531Z,18.38
2023-05-01T01:44:55.591Z,18.39
2023-05-01T01:45:07.546Z,18.38
2023-05-01T01:45:18.532Z,18.38
2023-05-01T01:45:29.519Z,18.39
2023-05-01T01:45:40.595Z,18.38
2023-05-01T01:45:51.586Z,18.39
2023-05-01T01:46:02.616Z,18.39
2023-05-01T01:46:14.623Z,18.38
2023-05-01T01:46:26.648Z,18.39
2023-05-01T01:46:37.662Z,18.38
2023-05-01T01:46:49.577Z,18.39
2023-05-01T01:47:00.542Z,18.39
2023-05-01T01:47:11.547Z,18.39
2023-05-01T01:47:22.583Z,18.38
2023-05-01T01:47:34.615Z,18.38
2023-05-01T01:47:45.680Z,18.38
2023-05-01T01:47:56.570Z,18.39
2023-05-01T01:48:07.644Z,18.39
2023-05-01T01:48:19.584Z,18.39
2023-05-01T01:48:30.551Z,18.39
2023-05-01T01:48:41.554Z,18.39
2023-05-01T01:48:52.532Z,18.38
2023-05-01T01:49:03.607Z,18.41
2023-05-01T01:49:15.559Z,18.38
2023-05-01T01:49:26.543Z,18.39
2023-05-01T01:49:37.524Z,18.39
2023-05-01T01:49:48.600Z,18.36
2023-05-01T01:50:00.555Z,18.38
2023-05-01T01:50:11.541Z,18.38
2023-05-01T01:50:22.536Z,18.39
2023-05-01T01:50:33.607Z,18.39
2023-05-01T01:50:45.555Z,18.39
2023-05-01T01:50:56.535Z,18.38
2023-05-01T01:51:07.616Z,18.39
2023-05-01T01:51:19.564Z,18.39
2023-05-01T01:51:30.557Z,18.38
2023-05-01T01:51:42.556Z,18.41
2023-05-01T01:51:53.541Z,18.38
2023-05-01T01:52:04.615Z,18.39
2023-05-01T01:52:15.582Z,18.39
2023-05-01T01:52:26.578Z,18.38
2023-05-01T01:52:37.555Z,18.39
2023-05-01T01:52:48.538Z,18.38
2023-05-01T01:52:59.615Z,18.38
2023-05-01T01:53:11.555Z,18.38
2023-05-01T01:53:22.533Z,18.38
2023-05-01T01:53:33.610Z,18.38
2023-05-01T01:53:45.576Z,18.38
2023-05-01T01:53:57.553Z,18.38
2023-05-01T01:54:08.527Z,18.38
2023-05-01T01:54:19.603Z,18.38
2023-05-01T01:54:30.583Z,18.36
2023-05-01T01:54:41.574Z,18.38
2023-05-01T01:54:52.582Z,18.41
2023-05-01T01:55:04.296Z,18.38
2023-05-01T01:55:15.583Z,18.38
2023-05-01T01:55:26.567Z,18.38
2023-05-01T01:55:37.544Z,18.36
2023-05-01T01:55:48.621Z,18.38
2023-05-01T01:56:03.624Z,18.36
2023-05-01T01:56:11.553Z,18.36
2023-05-01T01:56:22.537Z,18.36
2023-05-01T01:56:33.605Z,18.38
2023-05-01T01:56:44.583Z,18.38
2023-05-01T01:56:55.566Z,18.36
2023-05-01T01:57:06.529Z,18.38
2023-05-01T01:57:17.616Z,18.38
2023-05-01T01:57:29.554Z,18.36
2023-05-01T01:57:40.551Z,18.38
2023-05-01T01:57:51.526Z,18.36
2023-05-01T01:58:02.598Z,18.38
2023-05-01T01:58:14.548Z,18.36
2023-05-01T01:58:25.525Z,18.36
2023-05-01T01:58:36.622Z,18.38
2023-05-01T01:58:48.559Z,18.38
2023-05-01T01:58:59.533Z,18.38
2023-05-01T01:59:10.605Z,18.38
2023-05-01T01:59:22.554Z,18.38
2023-05-01T01:59:33.571Z,18.36
2023-05-01T01:59:45.572Z,18.38
2023-05-01T01:59:56.779Z,18.36
2023-05-01T02:00:07.546Z,18.36
2023-05-01T02:00:18.533Z,18.36
2023-05-01T02:00:29.516Z,18.36
2023-05-01T02:00:40.623Z,18.38
2023-05-01T02:00:52.560Z,18.38
2023-05-01T02:01:03.540Z,18.38
2023-05-01T02:01:14.704Z,18.38
2023-05-01T02:01:26.614Z,18.38
2023-05-01T02:01:37.583Z,18.38
2023-05-01T02:01:48.633Z,18.36
2023-05-01T02:01:59.642Z,18.36
2023-05-01T02:02:10.704Z,18.36
2023-05-01T02:02:21.550Z,18.36
2023-05-01T02:02:32.596Z,18.38
2023-05-01T02:02:43.575Z,18.38
2023-05-01T02:02:54.704Z,18.39
2023-05-01T02:03:06.693Z,18.36
2023-05-01T02:03:18.654Z,18.36
2023-05-01T02:03:29.603Z,18.38
2023-05-01T02:03:40.641Z,18.38
2023-05-01T02:03:51.603Z,18.36
2023-05-01T02:04:02.585Z,18.36
2023-05-01T02:04:14.821Z,18.38
2023-05-01T02:04:26.576Z,18.36
2023-05-01T02:04:37.543Z,18.36
2023-05-01T02:04:48.537Z,18.36
2023-05-01T02:04:59.643Z,18.36
2023-05-01T02:05:11.593Z,18.36
2023-05-01T02:05:22.593Z,18.36
2023-05-01T02:05:34.571Z,18.35
2023-05-01T02:05:45.570Z,18.36
2023-05-01T02:05:56.574Z,18.36
2023-05-01T02:06:08.595Z,18.36
2023-05-01T02:06:20.658Z,18.35
2023-05-01T02:06:31.644Z,18.36
2023-05-01T02:06:42.577Z,18.34
2023-05-01T02:06:53.554Z,18.35
2023-05-01T02:07:04.530Z,18.35
2023-05-01T02:07:15.605Z,18.36
2023-05-01T02:07:26.578Z,18.35
2023-05-01T02:07:37.558Z,18.35
2023-05-01T02:07:48.603Z,18.36
2023-05-01T02:07:59.533Z,18.34
2023-05-01T02:08:10.623Z,18.36
2023-05-01T02:08:22.575Z,18.35
2023-05-01T02:08:33.575Z,18.34
2023-05-01T02:08:44.558Z,18.36
2023-05-01T02:08:55.541Z,18.35
2023-05-01T02:09:06.628Z,18.35
2023-05-01T02:09:18.577Z,18.35
2023-05-01T02:09:29.553Z,18.35
2023-05-01T02:09:40.533Z,18.35
2023-05-01T02:09:51.625Z,18.35
2023-05-01T02:10:03.571Z,18.35
2023-05-01T02:10:14.563Z,18.35
2023-05-01T02:10:25.562Z,18.34
2023-05-01T02:10:36.545Z,18.32
2023-05-01T02:10:47.536Z,18.35
2023-05-01T02:11:00.903Z,18.34
2023-05-01T02:11:10.549Z,18.34
2023-05-01T02:11:21.554Z,18.34
2023-05-01T02:11:32.609Z,18.35
2023-05-01T02:11:44.554Z,18.32
2023-05-01T02:11:55.534Z,18.34
2023-05-01T02:12:06.524Z,18.34
2023-05-01T02:12:17.598Z,18.35
2023-05-01T02:12:28.581Z,18.34
2023-05-01T02:12:39.588Z,18.35
2023-05-01T02:12:50.588Z,18.35
2023-05-01T02:13:01.561Z,18.34
2023-05-01T02:13:12.551Z,18.34
2023-05-01T02:13:23.565Z,18.32
2023-05-01T02:13:34.567Z,18.34
2023-05-01T02:13:45.549Z,18.34
2023-05-01T02:13:56.510Z,18.34
2023-05-01T02:14:07.526Z,18.34
2023-05-01T02:14:18.616Z,18.35
2023-05-01T02:14:30.571Z,18.34
2023-05-01T02:14:41.560Z,18.35
2023-05-01T02:14:52.543Z,18.34
2023-05-01T02:15:03.536Z,18.35
2023-05-01T02:15:14.604Z,18.34
2023-05-01T02:15:26.568Z,18.35
2023-05-01T02:15:37.558Z,18.34
2023-05-01T02:15:48.576Z,18.35
2023-05-01T02:15:59.609Z,18.35
2023-05-01T02:16:11.644Z,18.34
2023-05-01T02:16:23.603Z,18.35
2023-05-01T02:16:35.653Z,18.35
2023-05-01T02:16:47.583Z,18.35
2023-05-01T02:16:58.579Z,18.35
2023-05-01T02:17:09.558Z,18.35
2023-05-01T02:17:20.551Z,18.35
2023-05-01T02:17:31.676Z,18.35
2023-05-01T02:17:42.550Z,18.35
2023-05-01T02:17:53.701Z,18.35
2023-05-01T02:18:04.654Z,18.35
2023-05-01T02:18:16.612Z,18.35
2023-05-01T02:18:28.568Z,18.35
2023-05-01T02:18:39.582Z,18.34
2023-05-01T02:18:50.575Z,18.35
2023-05-01T02:19:01.592Z,18.35
2023-05-01T02:19:13.555Z,18.35
2023-05-01T02:19:24.557Z,18.35
2023-05-01T02:19:35.551Z,18.35
2023-05-01T02:19:46.538Z,18.36
2023-05-01T02:19:57.744Z,18.35
2023-05-01T02:20:09.293Z,18.34
2023-05-01T02:20:20.578Z,18.35
2023-05-01T02:20:31.562Z,18.35
2023-05-01T02:20:42.561Z,18.35
2023-05-01T02:20:53.573Z,18.34
2023-05-01T02:21:04.599Z,18.34
2023-05-01T02:21:16.577Z,18.35
2023-05-01T02:21:27.554Z,18.34
2023-05-01T02:21:38.565Z,18.34
2023-05-01T02:21:49.573Z,18.34
2023-05-01T02:22:00.554Z,18.35
2023-05-01T02:22:11.640Z,18.35
2023-05-01T02:22:23.583Z,18.34
2023-05-01T02:22:34.592Z,18.34
2023-05-01T02:22:45.571Z,18.32
2023-05-01T02:22:56.531Z,18.35
2023-05-01T02:23:07.618Z,18.34
2023-05-01T02:23:19.551Z,18.35
2023-05-01T02:23:30.538Z,18.34
2023-05-01T02:23:41.621Z,18.34
2023-05-01T02:23:52.583Z,18.35
2023-05-01T02:24:03.587Z,18.36
2023-05-01T02:24:14.584Z,18.34
2023-05-01T02:24:25.555Z,18.35
2023-05-01T02:24:36.524Z,18.35
2023-05-01T02:24:47.607Z,18.34